Time;durP1;ratioP1;P1;durP2;ratioP2;P2;SDS_P1;SDS_P2;PMS_P1;PMS_P2;Temp;Humidity;BMP_temperature;BMP_pressure;BME280_temperature;BME280_humidity;BME280_pressure;Samples;Min_cycle;Max_cycle;Signal;HPM_P1;HPM_P2
2022/06/11 00:01:07;;;;;;;16.75;6.72;;;;;;;18.12;100.00;101963.88;10236648;28;20073;-70
2022/06/11 00:06:04;;;;;;;7.38;5.50;;;;;;;18.11;100.00;101962.25;10221994;28;20484;-70
2022/06/11 00:11:00;;;;;;;12.73;6.43;;;;;;;18.10;100.00;101955.09;10227143;28;20509;-70
2022/06/11 00:15:57;;;;;;;9.43;6.28;;;;;;;18.07;100.00;101953.81;10233565;28;20041;-69
2022/06/11 00:20:53;;;;;;;7.45;5.90;;;;;;;18.09;100.00;101953.47;10231533;28;20099;-69
2022/06/11 00:25:50;;;;;;;10.05;5.75;;;;;;;18.11;100.00;101962.25;10227836;28;20041;-69
2022/06/11 00:30:47;;;;;;;9.48;6.15;;;;;;;18.12;100.00;101946.47;10225360;28;20053;-69
2022/06/11 00:35:45;;;;;;;8.50;6.85;;;;;;;18.11;100.00;101956.72;10230186;28;20456;-69
2022/06/11 00:40:46;;;;;;;10.75;6.68;;;;;;;18.10;100.00;101955.09;10228413;28;20099;-69
2022/06/11 00:45:57;;;;;;;11.02;8.30;;;;;;;18.08;100.00;101946.34;10233314;28;20509;-69
2022/06/11 00:51:02;;;;;;;13.07;6.88;;;;;;;18.06;100.00;101943.91;10227439;28;20508;-68
2022/06/11 00:56:01;;;;;;;10.10;7.50;;;;;;;18.04;100.00;101939.84;10233629;28;20045;-69
2022/06/11 01:00:59;;;;;;;8.18;6.70;;;;;;;18.02;100.00;101942.16;10223923;28;20096;-69
2022/06/11 01:06:08;;;;;;;10.63;6.40;;;;;;;18.02;100.00;101942.16;10230951;28;20531;-69
2022/06/11 01:11:14;;;;;;;8.40;5.88;;;;;;;18.06;100.00;101932.03;10218927;28;20073;-69
2022/06/11 01:16:22;;;;;;;8.68;6.40;;;;;;;18.07;100.00;101939.16;10226210;28;20049;-69
2022/06/11 01:21:25;;;;;;;10.30;6.32;;;;;;;18.05;100.00;101947.00;10218914;28;20623;-69
2022/06/11 01:26:54;;;;;;;10.73;6.18;;;;;;;18.07;100.00;101939.16;10228890;28;20080;-69
2022/06/11 01:32:09;;;;;;;8.82;5.10;;;;;;;18.09;100.00;101925.81;10227755;28;20049;-69
2022/06/11 01:37:14;;;;;;;8.90;4.90;;;;;;;18.12;100.00;101922.34;10224077;28;20046;-69
2022/06/11 01:42:30;;;;;;;9.02;4.60;;;;;;;18.13;100.00;101909.34;10230983;28;20457;-69
2022/06/11 01:47:27;;;;;;;10.50;4.32;;;;;;;18.16;100.00;101905.88;10226107;28;20099;-69
2022/06/11 01:53:03;;;;;;;10.70;4.40;;;;;;;18.17;100.00;101905.56;10221496;28;20552;-68
2022/06/11 01:58:21;;;;;;;8.45;3.88;;;;;;;18.20;100.00;101895.75;10222731;28;20460;-69
2022/06/11 02:04:00;;;;;;;8.55;3.70;;;;;;;18.16;100.00;101892.84;10229723;28;20073;-69
2022/06/11 02:09:08;;;;;;;6.78;3.50;;;;;;;18.12;100.00;101886.38;10230119;28;20453;-69
2022/06/11 02:14:20;;;;;;;6.55;3.60;;;;;;;18.10;100.00;101885.91;10214210;28;20052;-69
2022/06/11 02:19:34;;;;;;;6.32;3.60;;;;;;;18.06;100.00;101882.22;10228484;28;20533;-69
2022/06/11 02:24:36;;;;;;;7.68;4.10;;;;;;;18.01;100.00;101885.19;10231118;28;20072;-69
2022/06/11 02:29:33;;;;;;;10.93;4.63;;;;;;;18.01;100.00;101890.72;10221363;28;20087;-69
2022/06/11 02:34:30;;;;;;;7.10;3.95;;;;;;;17.99;100.00;101884.72;10221096;28;20495;-69
2022/06/11 02:39:29;;;;;;;11.23;5.22;;;;;;;17.97;100.00;101892.56;10225995;28;20151;-69
2022/06/11 02:44:26;;;;;;;8.60;4.50;;;;;;;17.94;100.00;101895.97;10220185;28;20087;-69
2022/06/11 02:49:26;;;;;;;9.10;4.75;;;;;;;17.94;100.00;101887.69;10226717;28;20041;-69
2022/06/11 02:54:25;;;;;;;8.38;4.13;;;;;;;17.96;100.00;101890.94;10230620;28;20081;-69
2022/06/11 02:59:23;;;;;;;10.93;4.63;;;;;;;17.93;100.00;101888.84;10229170;28;20072;-68
2022/06/11 03:04:22;;;;;;;8.95;4.50;;;;;;;17.94;100.00;101896.81;10207262;28;20441;-68
2022/06/11 03:09:24;;;;;;;8.65;4.53;;;;;;;17.94;100.00;101904.28;10208358;28;20045;-67
2022/06/11 03:14:20;;;;;;;10.85;4.63;;;;;;;17.91;100.00;101899.44;10213075;28;20041;-68
2022/06/11 03:19:20;;;;;;;6.70;4.00;;;;;;;17.96;100.00;101893.69;10211816;28;20148;-68
2022/06/11 03:24:17;;;;;;;14.07;4.82;;;;;;;17.99;100.00;101893.03;10205528;28;20535;-68
2022/06/11 03:29:16;;;;;;;8.48;4.13;;;;;;;18.02;100.00;101897.88;10209747;28;20456;-68
2022/06/11 03:34:14;;;;;;;6.75;4.07;;;;;;;18.01;100.00;101890.72;10219947;28;20073;-68
2022/06/11 03:39:12;;;;;;;8.15;4.30;;;;;;;18.00;100.00;101894.63;10220625;28;20045;-68
2022/06/11 03:44:09;;;;;;;7.97;3.83;;;;;;;17.98;100.00;101896.94;10226674;28;20050;-68
2022/06/11 03:49:06;;;;;;;8.98;3.95;;;;;;;17.94;100.00;101896.81;10224417;28;20387;-68
2022/06/11 03:54:03;;;;;;;6.53;4.03;;;;;;;17.88;100.00;101898.97;10220615;28;20480;-68
2022/06/11 03:59:00;;;;;;;7.45;4.30;;;;;;;17.80;100.00;101897.06;10222963;28;20049;-68
2022/06/11 04:04:00;;;;;;;8.85;4.55;;;;;;;17.71;100.00;101898.25;10218320;28;20117;-68
2022/06/11 04:08:57;;;;;;;7.65;4.43;;;;;;;17.63;100.00;101897.19;10226436;28;20063;-68
2022/06/11 04:13:54;;;;;;;5.93;4.32;;;;;;;17.58;100.00;101902.94;10229847;28;20073;-68
2022/06/11 04:18:52;;;;;;;6.38;4.28;;;;;;;17.56;100.00;101908.00;10226945;28;20425;-67
2022/06/11 04:23:52;;;;;;;7.57;4.70;;;;;;;17.53;100.00;101914.19;10232503;28;20076;-67
2022/06/11 04:28:49;;;;;;;9.88;4.55;;;;;;;17.54;100.00;101907.50;10227401;28;20494;-68
2022/06/11 04:33:49;;;;;;;8.50;4.30;;;;;;;17.51;100.00;101911.75;10228155;28;20077;-68
2022/06/11 04:38:46;;;;;;;6.68;4.93;;;;;;;17.52;100.00;101912.56;10229837;28;20505;-68
2022/06/11 04:43:42;;;;;;;8.98;4.20;;;;;;;17.53;100.00;101908.66;10227723;28;20049;-68
2022/06/11 04:48:40;;;;;;;11.50;5.10;;;;;;;17.54;100.00;101907.50;10231961;28;20041;-67
2022/06/11 04:53:37;;;;;;;7.60;5.18;;;;;;;17.56;100.00;101908.78;10233250;28;20515;-67
2022/06/11 04:58:33;;;;;;;9.75;5.43;;;;;;;17.67;100.00;101909.22;10230704;28;20064;-67
2022/06/11 05:03:30;;;;;;;7.90;5.10;;;;;;;17.77;100.00;101919.06;10222986;28;20104;-67
2022/06/11 05:08:27;;;;;;;7.15;4.63;;;;;;;17.81;100.00;101915.31;10227065;28;20041;-67
2022/06/11 05:13:23;;;;;;;7.53;4.22;;;;;;;17.92;100.00;101912.16;10230053;28;20081;-67
2022/06/11 05:18:20;;;;;;;9.95;4.88;;;;;;;17.98;100.00;101908.00;10225084;28;20077;-66
2022/06/11 05:23:18;;;;;;;7.70;4.32;;;;;;;18.11;100.00;101915.22;10231384;28;20119;-67
2022/06/11 05:28:20;;;;;;;11.30;5.28;;;;;;;18.26;100.00;101913.75;10228652;28;20132;-67
2022/06/11 05:33:16;;;;;;;11.20;5.22;;;;;;;18.43;100.00;101915.56;10231586;28;20077;-67
2022/06/11 05:38:17;;;;;;;11.43;6.00;;;;;;;18.48;100.00;101920.88;10230210;28;20111;-67
2022/06/11 05:43:14;;;;;;;10.07;5.88;;;;;;;18.50;100.00;101924.09;10228859;28;20081;-67
2022/06/11 05:48:11;;;;;;;10.35;6.53;;;;;;;18.55;100.00;101925.84;10215575;28;20100;-67
2022/06/11 05:53:14;;;;;;;12.35;6.40;;;;;;;18.65;100.00;101925.38;10227998;28;20042;-67
2022/06/11 05:58:15;;;;;;;11.65;5.85;;;;;;;18.70;100.00;101923.22;10226214;28;20080;-67
2022/06/11 06:03:12;;;;;;;15.57;6.40;;;;;;;18.72;100.00;101931.97;10221833;28;20073;-66
2022/06/11 06:08:09;;;;;;;10.85;6.25;;;;;;;18.82;100.00;101918.84;10228105;28;20037;-67
2022/06/11 06:13:45;;;;;;;11.32;5.70;;;;;;;18.83;100.00;101914.94;10229558;28;20046;-67
2022/06/11 06:18:22;;;;;;;10.73;6.55;;;;;;;18.90;100.00;101929.03;10223856;28;20073;-67
2022/06/11 06:23:19;;;;;;;12.65;6.07;;;;;;;18.81;100.00;101931.09;10232008;28;20091;-67
2022/06/11 06:28:15;;;;;;;12.00;7.38;;;;;;;18.78;100.00;101934.56;10226742;28;20077;-67
2022/06/11 06:33:12;;;;;;;12.70;6.03;;;;;;;18.82;100.00;101935.47;10227642;28;20096;-67
2022/06/11 06:38:09;;;;;;;18.20;8.88;;;;;;;18.86;100.00;101941.97;10209107;28;20041;-67
2022/06/11 06:43:05;;;;;;;16.38;8.10;;;;;;;19.08;100.00;101941.50;10209210;28;20103;-67
2022/06/11 06:48:02;;;;;;;11.93;7.05;;;;;;;19.31;100.00;101946.59;10205378;28;20416;-66
2022/06/11 06:52:59;;;;;;;12.15;8.00;;;;;;;19.44;100.00;101944.59;10209471;28;20141;-66
2022/06/11 06:57:55;;;;;;;18.63;8.05;;;;;;;19.43;100.00;101941.03;10204610;28;20123;-67
2022/06/11 07:02:53;;;;;;;11.82;7.93;;;;;;;19.47;100.00;101941.97;10200288;28;20046;-66
2022/06/11 07:07:50;;;;;;;15.63;10.00;;;;;;;19.48;100.00;101935.25;10190032;28;20678;-68
2022/06/11 07:12:47;;;;;;;14.45;9.07;;;;;;;19.57;100.00;101942.63;10210572;28;20065;-68
2022/06/11 07:18:06;;;;;;;13.82;7.65;;;;;;;19.50;100.00;101949.56;10208930;28;20057;-68
2022/06/11 07:23:20;;;;;;;14.02;7.68;;;;;;;19.34;100.00;101948.66;10206328;28;20073;-69
2022/06/11 07:28:23;;;;;;;16.75;8.13;;;;;;;19.40;100.00;101947.28;10208590;28;20045;-69
2022/06/11 07:33:24;;;;;;;14.20;7.38;;;;;;;19.41;100.00;101946.13;10216995;28;20510;-68
2022/06/11 07:38:22;;;;;;;15.85;7.53;;;;;;;19.35;100.00;101944.72;10228707;28;20049;-69
2022/06/11 07:43:19;;;;;;;11.07;5.85;;;;;;;19.49;100.00;101945.16;10211343;28;20108;-68
2022/06/11 07:48:16;;;;;;;12.30;5.88;;;;;;;19.30;100.00;101939.41;10216597;28;20041;-69
2022/06/11 07:53:12;;;;;;;11.45;5.90;;;;;;;19.41;100.00;101935.03;10231813;28;20513;-70
2022/06/11 07:58:09;;;;;;;13.50;4.97;;;;;;;19.54;100.00;101933.84;10223840;28;20468;-69
2022/06/11 08:03:06;;;;;;;10.75;4.97;;;;;;;19.83;100.00;101936.69;10228803;28;20082;-70
2022/06/11 08:08:07;;;;;;;12.30;5.32;;;;;;;20.16;100.00;101947.56;10226166;28;20390;-70
2022/06/11 08:13:05;;;;;;;10.13;5.80;;;;;;;20.33;100.00;101946.44;10223167;28;20104;-69
2022/06/11 08:18:02;;;;;;;11.77;6.25;;;;;;;20.36;100.00;101945.75;10230572;28;20046;-69
2022/06/11 08:22:59;;;;;;;9.50;5.80;;;;;;;20.03;100.00;101937.66;10211478;28;20073;-69
2022/06/11 08:27:56;;;;;;;11.15;6.47;;;;;;;19.85;100.00;101943.50;10212126;28;20076;-67
2022/06/11 08:32:53;;;;;;;12.23;7.03;;;;;;;19.89;100.00;101944.44;10219575;28;20049;-69
2022/06/11 08:37:50;;;;;;;10.93;6.03;;;;;;;19.91;100.00;101931.00;10214034;28;20061;-69
2022/06/11 08:43:12;;;;;;;7.93;4.70;;;;;;;20.09;100.00;101930.69;10215718;28;20521;-69
2022/06/11 08:48:32;;;;;;;10.60;5.10;;;;;;;20.28;100.00;101930.81;10206577;28;20057;-70
2022/06/11 08:53:32;;;;;;;9.13;3.50;;;;;;;20.49;100.00;101929.78;10198280;28;20150;-69
2022/06/11 08:58:45;;;;;;;7.50;2.88;;;;;;;20.80;100.00;101918.75;10211259;28;20839;-69
2022/06/11 09:04:07;;;;;;;7.35;2.45;;;;;;;21.04;100.00;101914.16;10216535;28;20042;-69
2022/06/11 09:09:45;;;;;;;7.38;2.35;;;;;;;21.00;100.00;101935.50;10211113;28;20124;-69
2022/06/11 09:14:44;;;;;;;4.97;2.38;;;;;;;20.72;100.00;101935.59;10216875;28;20095;-69
2022/06/11 09:20:02;;;;;;;7.32;2.50;;;;;;;20.72;95.42;101941.16;10207468;28;20084;-69
2022/06/11 09:25:15;;;;;;;4.70;2.38;;;;;;;20.96;95.60;101934.63;10219061;28;20061;-69
2022/06/11 09:30:15;;;;;;;;;;;;;;;21.09;100.00;101933.31;10209070;28;20081;-69
2022/06/11 09:35:21;;;;;;;7.97;2.90;;;;;;;21.06;100.00;101945.19;10221857;28;19971;-69
2022/06/11 09:40:33;;;;;;;19.27;11.52;;;;;;;21.32;96.15;101936.25;10195614;28;20088;-69
2022/06/11 09:45:36;;;;;;;7.90;3.03;;;;;;;21.37;96.02;101954.63;10199674;28;20151;-68
2022/06/11 09:50:50;;;;;;;6.38;1.88;;;;;;;21.47;85.84;101948.56;10198329;28;20485;-69
2022/06/11 09:56:01;;;;;;;6.38;2.50;;;;;;;21.80;89.26;101950.06;10190515;28;20532;-70
2022/06/11 10:01:03;;;;;;;10.43;2.03;;;;;;;22.02;82.16;101962.44;10195551;28;20046;-69
2022/06/11 10:06:15;;;;;;;5.30;2.00;;;;;;;21.75;65.48;101958.72;10194672;28;20452;-70
2022/06/11 10:11:26;;;;;;;7.85;1.85;;;;;;;22.11;72.60;101956.66;10221465;28;20045;-67
2022/06/11 10:16:29;;;;;;;5.40;1.55;;;;;;;23.02;64.01;101969.97;10217330;28;20072;-68
2022/06/11 10:21:28;;;;;;;6.30;1.35;;;;;;;24.25;66.66;101969.69;10221281;28;20395;-68
2022/06/11 10:26:27;;;;;;;5.63;1.90;;;;;;;24.75;54.36;101961.84;10216028;28;20472;-69
2022/06/11 10:31:33;;;;;;;5.28;1.60;;;;;;;25.36;48.83;101985.53;10211082;28;20097;-69
2022/06/11 10:36:33;;;;;;;11.82;1.95;;;;;;;25.66;46.09;102004.13;10209468;28;20046;-69
2022/06/11 10:41:54;;;;;;;7.35;1.77;;;;;;;26.45;43.70;101976.44;10211096;28;20041;-69
2022/06/11 10:46:52;;;;;;;6.03;1.70;;;;;;;26.17;44.99;101972.38;10223340;28;20038;-69
2022/06/11 10:52:04;;;;;;;8.68;2.10;;;;;;;25.71;45.96;101977.75;10225271;28;20521;-69
2022/06/11 10:57:15;;;;;;;7.70;1.70;;;;;;;26.17;44.73;101983.59;10228318;28;20076;-69
2022/06/11 11:02:32;;;;;;;10.30;2.45;;;;;;;25.69;43.92;101994.97;10222994;28;20053;-69
2022/06/11 11:07:59;;;;;;;6.65;1.77;;;;;;;25.69;44.96;101980.97;10229100;28;20119;-69
2022/06/11 11:12:59;;;;;;;7.20;1.60;;;;;;;23.37;54.32;102002.41;10220050;28;20045;-69
2022/06/11 11:18:01;;;;;;;9.50;2.25;;;;;;;24.95;49.94;101988.41;10212057;28;20586;-69
2022/06/11 11:23:06;;;;;;;8.45;1.83;;;;;;;25.17;48.08;102002.56;10211960;28;20489;-69
2022/06/11 11:28:06;;;;;;;10.55;3.25;;;;;;;24.49;49.75;101993.56;10214591;28;20462;-69
2022/06/11 11:33:22;;;;;;;9.80;2.42;;;;;;;24.65;51.50;101998.91;10210323;28;20069;-69
2022/06/11 11:38:22;;;;;;;11.88;2.47;;;;;;;26.47;46.02;101995.69;10215359;28;20038;-69
2022/06/11 11:43:20;;;;;;;11.20;2.22;;;;;;;26.27;47.40;101996.03;10208505;28;20049;-69
2022/06/11 11:48:43;;;;;;;8.90;2.10;;;;;;;26.07;47.16;102012.38;10209211;28;20132;-70
2022/06/11 11:53:46;;;;;;;9.38;1.98;;;;;;;25.69;48.10;102008.97;10212777;28;20049;-69
2022/06/11 11:58:50;;;;;;;8.73;2.22;;;;;;;25.01;48.48;102007.63;10210209;28;20081;-69
2022/06/11 12:04:35;;;;;;;7.22;2.35;;;;;;;24.88;47.02;102004.31;10211725;28;20045;-69
2022/06/11 12:09:37;;;;;;;7.03;1.90;;;;;;;24.26;50.06;102002.03;10197839;28;20069;-69
2022/06/11 12:14:39;;;;;;;11.23;2.60;;;;;;;23.77;53.96;102014.19;10200508;28;20050;-69
2022/06/11 12:19:35;;;;;;;;;;;;;;;23.66;56.48;102002.81;10207278;28;20199;-69
2022/06/11 12:24:41;;;;;;;11.77;2.55;;;;;;;23.80;55.01;102000.25;10205802;28;20288;-69
2022/06/11 12:29:53;;;;;;;12.05;1.98;;;;;;;23.40;58.16;102006.44;10211546;28;20080;-69
2022/06/11 12:34:54;;;;;;;9.13;2.65;;;;;;;23.29;59.12;102012.63;10213636;28;20073;-69
2022/06/11 12:40:15;;;;;;;15.40;3.05;;;;;;;23.23;71.07;102018.91;10220191;28;20077;-69
2022/06/11 12:45:37;;;;;;;12.63;2.50;;;;;;;23.10;74.82;102021.88;10212309;28;20152;-69
2022/06/11 12:51:03;;;;;;;17.20;3.65;;;;;;;22.77;76.83;102019.69;10214575;28;20390;-69
2022/06/11 12:56:31;;;;;;;17.02;5.97;;;;;;;22.73;79.44;102015.22;10233599;28;20049;-69
2022/06/11 13:01:47;;;;;;;12.90;2.63;;;;;;;22.76;73.16;102014.47;10230549;28;20386;-69
2022/06/11 13:06:58;;;;;;;12.60;2.50;;;;;;;22.72;72.13;102021.97;10226879;28;20433;-69
2022/06/11 13:11:54;;;;;;;19.73;8.13;;;;;;;23.25;73.66;102019.34;10221957;28;20088;-67
2022/06/11 13:16:51;;;;;;;9.15;2.55;;;;;;;23.58;67.47;102029.84;10230223;28;20088;-68
2022/06/11 13:21:56;;;;;;;9.05;2.33;;;;;;;23.34;63.66;102041.41;10212396;28;20042;-69
2022/06/11 13:26:56;;;;;;;10.93;2.67;;;;;;;22.98;66.24;102029.63;10212099;28;20057;-69
2022/06/11 13:32:16;;;;;;;12.23;3.50;;;;;;;23.04;64.16;102028.16;10212826;28;20468;-69
2022/06/11 13:37:39;;;;;;;11.43;2.67;;;;;;;23.19;58.42;102012.47;10211474;28;20087;-68
2022/06/11 13:42:47;;;;;;;8.20;2.00;;;;;;;23.16;60.89;102019.59;10218538;28;20059;-69
2022/06/11 13:47:46;;;;;;;27.58;17.13;;;;;;;23.40;62.10;102017.59;10214345;28;20460;-69
2022/06/11 13:58:48;;;;;;;23.13;12.65;;;;;;;23.42;70.19;102009.66;10218948;28;20092;-69
2022/06/11 14:04:10;;;;;;;20.80;9.75;;;;;;;23.77;61.39;102022.56;10211520;28;20041;-69
2022/06/11 14:14:40;;;;;;;13.60;6.00;;;;;;;23.25;57.23;102008.97;10223397;28;20080;-69
2022/06/11 14:19:38;;;;;;;12.52;5.50;;;;;;;23.01;64.05;102006.59;10225423;28;20102;-69
2022/06/11 14:24:41;;;;;;;12.93;4.55;;;;;;;22.90;68.90;102012.72;10222635;28;20076;-68
2022/06/11 14:29:37;;;;;;;15.35;3.70;;;;;;;23.00;70.99;102004.97;10230825;28;20694;-69
2022/06/11 14:34:35;;;;;;;8.77;2.50;;;;;;;23.53;66.30;101999.44;10220469;28;20088;-68
2022/06/11 14:39:35;;;;;;;10.27;2.60;;;;;;;23.89;66.34;102002.78;10228704;28;20472;-68
2022/06/11 14:44:32;;;;;;;13.48;2.90;;;;;;;23.92;67.57;101993.63;10221734;28;20125;-68
2022/06/11 14:49:29;;;;;;;13.35;3.03;;;;;;;24.56;65.07;101996.41;10229039;28;20048;-69
2022/06/11 14:54:38;;;;;;;11.43;2.05;;;;;;;25.19;59.43;102009.41;10228572;28;20087;-69
2022/06/11 14:59:55;;;;;;;11.70;2.70;;;;;;;25.34;56.07;102001.13;10225413;28;20041;-69
2022/06/11 15:05:17;;;;;;;10.27;2.40;;;;;;;24.76;59.90;101997.81;10225493;28;20041;-68
2022/06/11 15:10:13;;;;;;;10.97;2.93;;;;;;;24.23;58.95;101991.59;10220844;28;20097;-69
2022/06/11 15:15:33;;;;;;;13.48;3.58;;;;;;;24.76;59.68;102002.59;10228964;28;20476;-69
2022/06/11 15:20:33;;;;;;;9.52;2.55;;;;;;;24.56;59.12;102011.19;10219128;28;20050;-68
2022/06/11 15:25:31;;;;;;;12.63;2.72;;;;;;;24.73;63.41;102000.56;10225794;28;20463;-69
2022/06/11 15:30:30;;;;;;;14.25;3.70;;;;;;;24.84;60.29;102004.28;10224898;28;20104;-69
2022/06/11 15:35:41;;;;;;;14.82;3.03;;;;;;;24.66;61.70;102008.91;10206725;28;20279;-67
2022/06/11 15:40:40;;;;;;;12.15;2.75;;;;;;;24.79;62.68;102007.44;10205632;28;20046;-68
2022/06/11 15:45:37;;;;;;;14.10;2.63;;;;;;;24.81;62.32;102007.03;10217914;28;20145;-69
2022/06/11 15:50:36;;;;;;;16.33;3.35;;;;;;;24.86;63.50;102007.50;10215090;28;20065;-69
2022/06/11 15:55:39;;;;;;;11.65;3.28;;;;;;;25.05;64.36;102003.66;10210754;28;20097;-69
2022/06/11 16:00:38;;;;;;;14.18;3.85;;;;;;;25.93;59.81;102018.72;10209728;28;20468;-69
2022/06/11 16:05:42;;;;;;;22.95;4.10;;;;;;;26.44;54.16;102014.13;10223430;28;20069;-68
2022/06/11 16:10:39;;;;;;;15.15;3.33;;;;;;;26.92;51.33;102005.41;10224281;28;20080;-69
2022/06/11 16:15:35;;;;;;;17.33;4.60;;;;;;;26.85;48.71;102019.41;10228441;28;20140;-69
2022/06/11 16:20:35;;;;;;;14.45;3.08;;;;;;;27.30;48.38;102003.03;10221113;28;20069;-69
2022/06/11 16:25:35;;;;;;;15.73;4.82;;;;;;;27.77;46.24;102011.38;10210724;28;20041;-69
2022/06/11 16:30:35;;;;;;;15.80;3.35;;;;;;;27.71;44.63;102016.59;10205375;28;20125;-69
2022/06/11 16:35:49;;;;;;;14.65;3.00;;;;;;;27.12;44.99;102021.84;10203496;28;20076;-69
2022/06/11 16:40:51;;;;;;;12.95;2.80;;;;;;;26.75;45.73;102025.84;10216361;28;20076;-68
2022/06/11 16:45:53;;;;;;;10.98;2.63;;;;;;;26.36;47.33;102018.88;10220439;28;20072;-68
2022/06/11 16:56:21;;;;;;;14.43;3.03;;;;;;;27.14;45.33;102033.50;10213964;28;20125;-68
2022/06/11 17:01:22;;;;;;;15.02;3.15;;;;;;;27.37;42.98;102030.31;10221284;28;20811;-67
2022/06/11 17:06:31;;;;;;;14.68;3.13;;;;;;;27.62;43.24;102035.91;10209226;28;20060;-69
2022/06/11 17:11:28;;;;;;;9.70;2.30;;;;;;;27.21;44.86;102022.28;10208699;28;20095;-69
2022/06/11 17:16:33;;;;;;;15.02;2.85;;;;;;;26.51;44.66;102030.97;10209831;28;20069;-69
2022/06/11 17:21:35;;;;;;;13.63;3.70;;;;;;;25.87;45.27;102037.09;10213638;28;20070;-69
2022/06/11 17:27:09;;;;;;;12.27;2.35;;;;;;;25.22;46.25;102041.41;10208767;28;20077;-68
2022/06/11 17:32:13;;;;;;;10.65;2.45;;;;;;;24.99;47.00;102034.00;10216925;28;20050;-68
2022/06/11 17:37:21;;;;;;;16.00;3.40;;;;;;;26.03;45.30;102040.38;10227717;28;20419;-68
2022/06/11 17:42:17;;;;;;;12.65;2.63;;;;;;;26.81;42.79;102032.66;10224269;28;20133;-69
2022/06/11 17:47:14;;;;;;;10.68;2.55;;;;;;;27.03;41.91;102034.28;10229428;28;20046;-69
2022/06/11 17:52:29;;;;;;;11.65;2.60;;;;;;;27.08;40.58;102031.09;10228049;28;20077;-69
2022/06/11 17:57:25;;;;;;;16.05;2.78;;;;;;;26.10;43.32;102028.41;10213185;28;20077;-68
2022/06/11 18:02:26;;;;;;;14.15;3.00;;;;;;;25.33;44.57;102033.91;10225053;28;20552;-69
2022/06/11 18:07:23;;;;;;;13.55;2.40;;;;;;;24.13;46.88;102041.38;10216364;28;20537;-68
2022/06/11 18:12:19;;;;;;;12.32;3.08;;;;;;;23.81;49.52;102037.34;10224481;28;20099;-69
2022/06/11 18:17:36;;;;;;;13.68;2.63;;;;;;;23.36;51.31;102039.84;10221019;28;20084;-68
2022/06/11 18:27:50;;;;;;;16.17;3.20;;;;;;;22.87;55.95;102033.00;10222856;28;20731;-68
2022/06/11 18:32:47;;;;;;;10.60;3.00;;;;;;;22.47;58.55;102050.16;10225531;28;20053;-68
2022/06/11 18:37:44;;;;;;;15.20;3.22;;;;;;;22.36;60.42;102038.78;10225121;28;20100;-69
2022/06/11 18:42:41;;;;;;;15.13;3.13;;;;;;;22.18;62.97;102043.16;10228403;28;20072;-69
2022/06/11 18:47:39;;;;;;;13.82;2.70;;;;;;;21.94;64.95;102056.19;10215794;28;20049;-68
2022/06/11 18:52:37;;;;;;;14.85;3.10;;;;;;;21.82;66.17;102048.75;10220837;28;20038;-68
2022/06/11 18:57:33;;;;;;;9.38;2.35;;;;;;;21.64;68.44;102053.91;10226321;28;20095;-68
2022/06/11 19:02:30;;;;;;;13.95;2.63;;;;;;;21.34;69.47;102058.31;10216610;28;20077;-68
2022/06/11 19:07:26;;;;;;;13.35;2.55;;;;;;;21.16;70.54;102061.44;10219961;28;20091;-69
2022/06/11 19:12:23;;;;;;;15.10;2.75;;;;;;;20.95;73.65;102061.69;10229708;28;20033;-68
2022/06/11 19:17:19;;;;;;;14.43;3.08;;;;;;;20.90;75.21;102070.28;10212063;28;20111;-69
2022/06/11 19:22:16;;;;;;;14.10;3.25;;;;;;;20.75;76.88;102074.66;10230114;28;20041;-69
2022/06/11 19:27:12;;;;;;;10.82;2.38;;;;;;;20.54;78.89;102091.50;10219682;28;20501;-68
2022/06/11 19:32:09;;;;;;;10.60;2.85;;;;;;;20.29;79.13;102101.06;10221212;28;20580;-68
2022/06/11 19:37:06;;;;;;;10.18;2.72;;;;;;;20.30;79.31;102081.25;10226249;28;20459;-68
2022/06/11 19:42:04;;;;;;;10.43;2.42;;;;;;;20.28;80.72;102066.91;10214126;28;20038;-68
2022/06/11 19:47:01;;;;;;;9.20;1.92;;;;;;;20.17;79.73;102077.72;10228467;28;20132;-68
2022/06/11 19:51:58;;;;;;;9.77;1.63;;;;;;;20.06;83.75;102084.09;10233684;28;20557;-68
2022/06/11 19:56:55;;;;;;;16.23;2.42;;;;;;;19.90;81.38;102090.38;10226639;28;20502;-68
2022/06/11 20:01:51;;;;;;;11.95;3.45;;;;;;;19.67;83.24;102091.97;10226208;28;20041;-68
2022/06/11 20:06:48;;;;;;;13.07;2.33;;;;;;;19.55;83.77;102090.00;10229152;28;20053;-66
2022/06/11 20:11:45;;;;;;;10.95;2.35;;;;;;;19.51;84.55;102095.41;10214765;28;20049;-66
2022/06/11 20:16:43;;;;;;;15.27;3.58;;;;;;;19.42;85.67;102097.47;10213243;28;20045;-68
2022/06/11 20:21:39;;;;;;;15.23;2.35;;;;;;;19.40;86.68;102094.28;10226662;28;20099;-68
2022/06/11 20:26:36;;;;;;;9.48;2.35;;;;;;;19.17;86.50;102096.66;10222578;28;20041;-69
2022/06/11 20:31:33;;;;;;;9.88;2.40;;;;;;;19.12;87.50;102094.91;10224914;28;20444;-69
2022/06/11 20:36:30;;;;;;;9.82;2.20;;;;;;;19.09;91.26;102098.34;10211697;28;20108;-69
2022/06/11 20:41:27;;;;;;;15.27;3.70;;;;;;;19.05;92.48;102089.13;10220034;28;20058;-69
2022/06/11 20:46:25;;;;;;;12.05;2.85;;;;;;;18.97;92.66;102091.97;10224239;28;20046;-69
2022/06/11 20:51:25;;;;;;;10.00;2.58;;;;;;;18.88;92.13;102086.53;10214103;28;20045;-69
2022/06/11 20:56:21;;;;;;;11.13;2.50;;;;;;;18.80;95.17;102088.22;10227286;28;20073;-69
2022/06/11 21:01:18;;;;;;;11.32;1.98;;;;;;;18.66;95.51;102082.94;10225855;28;20050;-69
2022/06/11 21:06:14;;;;;;;10.57;2.22;;;;;;;18.60;91.62;102089.84;10214474;28;20049;-70
2022/06/11 21:11:11;;;;;;;11.90;1.98;;;;;;;18.58;91.88;102075.53;10221783;28;20061;-69
2022/06/11 21:16:08;;;;;;;9.02;2.22;;;;;;;18.52;91.08;102079.66;10224020;28;20037;-69
2022/06/11 21:21:16;;;;;;;8.70;2.35;;;;;;;18.46;91.70;102081.00;10211066;28;20068;-69
2022/06/11 21:26:13;;;;;;;14.27;3.20;;;;;;;18.41;91.11;102086.75;10216783;28;20466;-68
2022/06/11 21:31:09;;;;;;;8.40;1.80;;;;;;;18.30;92.84;102087.16;10217661;28;20045;-69
2022/06/11 21:36:06;;;;;;;9.90;2.95;;;;;;;18.27;94.03;102085.06;10230027;28;20096;-69
2022/06/11 21:46:18;;;;;;;7.97;2.17;;;;;;;18.19;91.98;102091.47;10214200;28;20065;-67
2022/06/11 21:51:14;;;;;;;8.70;2.08;;;;;;;18.17;94.09;102082.72;10213322;28;20072;-67
2022/06/11 21:56:11;;;;;;;14.57;2.45;;;;;;;18.09;95.90;102091.88;10213921;28;20080;-68
2022/06/11 22:01:10;;;;;;;9.05;2.42;;;;;;;17.96;98.34;102087.38;10208285;28;20485;-69
2022/06/11 22:06:06;;;;;;;10.50;2.80;;;;;;;17.88;99.82;102089.88;10213408;28;20042;-69
2022/06/11 22:11:04;;;;;;;12.05;2.58;;;;;;;17.82;100.00;102088.47;10202146;28;20616;-69
2022/06/11 22:16:10;;;;;;;8.57;2.25;;;;;;;17.77;100.00;102094.13;10219713;28;20069;-69
2022/06/11 22:21:10;;;;;;;11.07;2.53;;;;;;;17.76;100.00;102103.59;10228221;28;20045;-69
2022/06/11 22:26:07;;;;;;;9.98;2.38;;;;;;;17.81;99.25;102086.81;10220245;28;20045;-69
2022/06/11 22:31:03;;;;;;;10.60;2.75;;;;;;;17.77;100.00;102096.09;10216677;28;20489;-69
2022/06/11 22:36:00;;;;;;;9.80;2.20;;;;;;;17.71;100.00;102092.72;10230865;28;20054;-69
2022/06/11 22:40:58;;;;;;;16.20;4.10;;;;;;;17.71;100.00;102086.34;10226037;28;20046;-69
2022/06/11 22:45:55;;;;;;;12.18;2.22;;;;;;;17.65;100.00;102094.03;10225639;28;20069;-69
2022/06/11 22:50:52;;;;;;;8.18;2.63;;;;;;;17.67;100.00;102102.81;10226720;28;20060;-69
2022/06/11 22:55:48;;;;;;;12.20;2.78;;;;;;;17.59;100.00;102092.59;10227606;28;20505;-69
2022/06/11 23:00:46;;;;;;;8.70;2.55;;;;;;;17.46;100.00;102095.25;10225681;28;20053;-69
2022/06/11 23:05:42;;;;;;;10.13;2.35;;;;;;;17.37;100.00;102100.00;10227999;28;20103;-69
2022/06/11 23:10:40;;;;;;;9.40;2.78;;;;;;;17.33;100.00;102099.03;10223290;28;20429;-68
2022/06/11 23:15:37;;;;;;;14.77;3.58;;;;;;;17.29;100.00;102102.78;10216784;28;20848;-69
2022/06/11 23:20:33;;;;;;;10.43;2.85;;;;;;;17.18;100.00;102108.69;10230095;28;20069;-69